Flight Track Log - Related Links

Times and Time Zones

All times are in EDT time to prevent confusion due to time zone crossing. See the N709AA flight status page for this flight to view local times or setup timezone preferences in your user account.

Time Position Orientation Groundspeed Altitude Reporting Facility
EDT Latitude Longitude Course Direction KTS MPH feet Rate Location/Type
Sun 03:39:15 PM 20.7392 -89.3902 355° North  Level FlightAware Approximate
Sun 03:40:15 PM 20.8643 -89.4018 355° North  Level FlightAware Approximate
Sun 03:41:15 PM 20.9894 -89.4135 355° North  Level FlightAware Approximate
Sun 03:42:15 PM 21.1145 -89.4252 355° North  Level FlightAware Approximate
Sun 03:43:15 PM 21.2396 -89.4369 355° North  Level FlightAware Approximate
Sun 03:44:15 PM 21.3647 -89.4486 355° North  Level FlightAware Approximate
Sun 03:45:15 PM 21.4898 -89.4603 355° North  Level FlightAware Approximate
Sun 03:46:15 PM 21.6149 -89.4720 355° North  Level FlightAware Approximate
Sun 03:47:15 PM 21.7354 -89.5060 355° North  Level FlightAware Approximate
Sun 03:48:15 PM 21.8605 -89.5172 355° North  Level FlightAware Approximate
Sun 03:49:15 PM 21.9857 -89.5285 355° North  Level FlightAware Approximate
Sun 03:50:15 PM 22.1108 -89.5397 355° North  Level FlightAware Approximate
Sun 03:51:15 PM 22.2360 -89.5509 355° North  Level FlightAware Approximate
Sun 03:52:15 PM 22.3611 -89.5622 355° North  Level FlightAware Approximate
Sun 03:53:15 PM 22.4862 -89.5735 355° North  Level FlightAware Approximate
Sun 03:54:15 PM 22.6114 -89.5848 355° North  Level FlightAware Approximate
Sun 03:55:15 PM 22.7365 -89.5962 355° North  Level FlightAware Approximate
Sun 03:56:15 PM 22.8617 -89.6076 355° North  Level FlightAware Approximate
Sun 03:57:15 PM 22.9801 -89.6516 356° North  Level FlightAware Approximate
Sun 03:58:15 PM 23.1052 -89.6607 356° North  Level FlightAware Approximate
Sun 03:59:15 PM 23.2302 -89.6698 356° North  Level FlightAware Approximate
Sun 04:00:15 PM 23.3553 -89.6789 356° North  Level FlightAware Approximate
Sun 04:01:15 PM 23.4803 -89.6880 356° North  Level FlightAware Approximate
Sun 04:02:15 PM 23.6054 -89.6971 356° North  Level FlightAware Approximate
Sun 04:03:15 PM 23.7305 -89.7063 356° North  Level FlightAware Approximate
Sun 04:04:15 PM 23.8555 -89.7154 356° North  Level FlightAware Approximate
Sun 04:05:15 PM 23.9806 -89.7246 356° North  Level FlightAware Approximate
Sun 04:06:15 PM 24.1056 -89.7338 356° North  Level FlightAware Approximate
Sun 04:24:50 PM 26.7203 -89.9606 355° North 474 545 45,000  Level Houston Center
Sun 04:25:50 PM 26.8522 -89.9725 358° North 468 539 45,000  Level Houston Center
Sun 04:26:50 PM 26.9839 -89.9775 356° North 468 539 45,000  Level Houston Center
Sun 04:27:50 PM 27.1156 -89.9872 359° North 468 539 45,000  Level Houston Center
Sun 04:28:50 PM 27.2492 -89.9900 355° North 468 539 45,000  Level Houston Center
Sun 04:29:50 PM 27.3831 -90.0019 356° North 473 544 45,000  Level Houston Center
Sun 04:30:50 PM 27.5147 -90.0117 359° North 478 550 45,000  Level Houston Center
Sun 04:31:50 PM 27.6464 -90.0144 357° North 478 550 45,000  Level Houston Center
Sun 04:32:50 PM 27.7803 -90.0217 357° North 478 550 45,000  Level Houston Center
Sun 04:33:50 PM 27.9142 -90.0292 357° North 478 550 45,000  Level Houston Center
Sun 04:34:50 PM 28.0436 -90.0367 354° North 478 550 45,000  Level Houston Center
Sun 04:35:50 PM 28.1775 -90.0533 358° North 478 550 45,000  Level Houston Center
Sun 04:36:50 PM 28.3092 -90.0586 360° North 478 550 45,000  Level Houston Center
Sun 04:37:50 PM 28.4428 -90.0589 North 478 550 45,000  Level Houston Center
Sun 04:38:50 PM 28.5764 -90.0497 North 478 550 45,000  Level Houston Center
Sun 04:39:50 PM 28.7100 -90.0383 North 478 550 45,000  Level Houston Center
Sun 04:40:50 PM 28.8456 -90.0314 North 478 550 45,000  Level Houston Center
Sun 04:41:50 PM 28.9792 -90.0222 North 478 550 45,000  Level Houston Center
Sun 04:42:50 PM 29.1106 -90.0083 North 478 550 45,000  Level Houston Center
Sun 04:43:50 PM 29.2442 -89.9992 North 478 550 45,000  Level Houston Center
Sun 04:44:50 PM 29.3778 -89.9875 North 478 550 45,000  Level Houston Center
Sun 04:45:50 PM 29.5133 -89.9781 North 478 550 45,000  Level Houston Center
Sun 04:46:50 PM 29.6447 -89.9642 North 478 550 45,000  Level Houston Center
Sun 04:47:50 PM 29.7781 -89.9547 North 478 550 45,000  Level Houston Center
Sun 04:48:50 PM 29.9075 -89.9453 North 473 544 45,000  Level Houston Center
Sun 04:49:50 PM 30.0264 -89.9339 North 473 544 45,000  Level Houston Center
Sun 04:50:50 PM 30.1578 -89.9267 North 473 544 45,000  Level Houston Center
Sun 04:51:50 PM 30.3058 -89.9144 North 479 551 45,000  Level Houston Center
Sun 04:52:50 PM 30.4331 -89.9003 North 473 544 45,000  Level Houston Center
Sun 04:53:50 PM 30.5603 -89.8933 North 487 560 45,000  Level Houston Center
Sun 04:54:50 PM 30.6914 -89.8789 North 474 545 45,000  Level Houston Center
Sun 04:55:50 PM 30.8208 -89.8694 North 468 539 45,000  Level Houston Center
Sun 04:56:50 PM 30.9519 -89.8550 North 468 539 45,000  Level Houston Center
Sun 04:57:50 PM 31.0814 -89.8453 North 468 539 45,000  Level Houston Center
Sun 04:58:50 PM 31.2147 -89.8356 North 468 539 45,000  Level Houston Center
Sun 05:00:36 PM 31.4619 -89.8119 North 467 537 45,000  Level Memphis Center
Sun 05:01:36 PM 31.5892 -89.8014 North 472 543 45,000  Level Memphis Center
Sun 05:02:36 PM 31.7186 -89.7908 North 472 543 45,000  Level Memphis Center
Sun 05:03:36 PM 31.8522 -89.7778 North 472 543 45,000  Level Memphis Center
Sun 05:04:36 PM 31.9794 -89.7694 North 472 543 45,000  Level Memphis Center
Sun 05:05:36 PM 32.1131 -89.7564 North 467 537 45,000  Level Memphis Center
Sun 05:06:36 PM 32.2403 -89.7433 North 467 537 45,000  Level Memphis Center
Sun 05:07:36 PM 32.3592 -89.7350 North 462 532 45,000  Level Memphis Center
Sun 05:08:36 PM 32.4908 -89.7219 North 462 532 45,000  Level Memphis Center
Sun 05:09:36 PM 32.6222 -89.7111 North 462 532 45,000  Level Memphis Center
Sun 05:10:36 PM 32.7536 -89.6978 North 462 532 45,000  Level Memphis Center
Sun 05:11:36 PM 32.8850 -89.6844 North 462 532 45,000  Level Memphis Center
Sun 05:12:36 PM 33.0186 -89.6733 North 468 539 45,000  Level Memphis Center
Sun 05:13:36 PM 33.1647 -89.6600 North 476 548 45,000  Level Memphis Center
Sun 05:14:36 PM 33.2961 -89.6514 North 476 548 45,000  Level Memphis Center
Sun 05:15:36 PM 33.4256 -89.6378 North 476 548 45,000  Level Memphis Center
Sun 05:16:36 PM 33.5547 -89.6294 North 471 542 45,000  Level Memphis Center
Sun 05:17:36 PM 33.6864 -89.6183 North 471 542 45,000  Level Memphis Center
Sun 05:18:36 PM 33.8219 -89.6047 North 471 542 45,000  Level Memphis Center
Sun 05:19:36 PM 33.9344 -89.5936 North 465 535 45,000  Level Memphis Center
Sun 05:20:36 PM 34.0681 -89.5797 North 465 535 45,000  Level Memphis Center
Sun 05:21:36 PM 34.1972 -89.5686 North 465 535 45,000  Level Memphis Center
Sun 05:22:36 PM 34.3286 -89.5547 North 465 535 45,000  Level Memphis Center
Sun 05:23:36 PM 34.4600 -89.5411 North 465 535 45,000  Level Memphis Center
Sun 05:24:36 PM 34.5936 -89.5297 North 471 542 45,000  Level Memphis Center
Sun 05:25:36 PM 34.7250 -89.5131 North 471 542 45,000  Level Memphis Center
Sun 05:26:36 PM 34.8603 -89.4992 North 481 554 45,000  Level Memphis Center
Sun 05:27:36 PM 34.9939 -89.4875 North 481 554 45,000  Level Memphis Center
Sun 05:28:36 PM 35.1272 -89.4761 North 481 554 45,000  Level Memphis Center
Sun 05:29:36 PM 35.2606 -89.4644 North 481 554 45,000  Level Memphis Center
Sun 05:30:36 PM 35.3900 -89.4556 North 473 544 45,000  Level Memphis Center
Sun 05:31:36 PM 35.5233 -89.4439 North 473 544 45,000  Level Memphis Center
Sun 05:32:36 PM 35.6650 -89.4319 North 473 544 45,000  Level Memphis Center
Sun 05:33:36 PM 35.7775 -89.4206 North 461 531 45,000  Level Memphis Center
Sun 05:34:36 PM 35.9089 -89.4061 North 461 531 45,000  Level Memphis Center
Sun 05:35:36 PM 36.0381 -89.3969 North 461 531 45,000  Level Memphis Center
Sun 05:36:36 PM 36.1653 -89.3853 North 461 531 45,000  Level Memphis Center
Sun 05:37:36 PM 36.2986 -89.3758 North 461 531 45,000  Level Memphis Center
Sun 05:38:36 PM 36.4525 -89.3533 North 491 565 45,000  Level Memphis Center
Sun 05:39:36 PM 36.5881 -89.3464 North 484 557 45,000  Level Memphis Center
Sun 05:40:36 PM 36.7150 -89.3344 North 474 545 45,000  Level Memphis Center
Sun 05:41:36 PM 36.8461 -89.3200 North 468 539 45,000  Level Memphis Center
Sun 05:42:36 PM 36.9775 -89.3078 North 468 539 45,000  Level Memphis Center
Sun 05:43:36 PM 37.1086 -89.2956 North 468 539 45,000  Level Memphis Center
Sun 05:46:00 PM 37.4308 -89.2644 North 481 554 45,000  Level Kansas City Center
Sun 05:47:00 PM 37.5656 -89.2472 North 476 548 45,000  Level Kansas City Center
Sun 05:48:00 PM 37.6986 -89.2381 North 476 548 45,000  Level Kansas City Center
Sun 05:49:00 PM 37.8028 -89.2308 North 476 548 45,000  Level Kansas City Center
Sun 05:50:00 PM 37.9603 -89.2092 North 467 537 45,000  Level Kansas City Center
Sun 05:51:00 PM 38.0764 -89.1956 North 465 535 45,000  Level Kansas City Center
Sun 05:52:00 PM 38.2217 -89.1800 North 473 544 45,000 -450 Level Kansas City Center
Sun 05:53:00 PM 38.3506 -89.1653 North 473 544 44,100 -900 Descending Kansas City Center
Sun 05:54:00 PM 38.4750 -89.1511 North 461 531 43,200 -1,000 Descending Kansas City Center
Sun 05:55:00 PM 38.6053 -89.1308 North 461 531 42,100 -1,000 Descending Kansas City Center
Sun 05:56:00 PM 38.7358 -89.1081 North 461 531 41,200 -1,000 Descending Kansas City Center
Sun 05:57:00 PM 38.8642 -89.0853 North 466 536 40,100 -950 Descending Kansas City Center
Sun 05:58:00 PM 38.9964 -89.0619 North 466 536 39,300 -800 Descending Kansas City Center
Sun 05:59:00 PM 39.1289 -89.0414 North 473 544 38,500 -800 Descending Kansas City Center
Sun 06:00:00 PM 39.2469 -89.0217 North 478 550 37,700 -750 Descending Kansas City Center
Sun 06:01:00 PM 39.3753 -89.0011 North 478 550 37,000 -550 Descending Kansas City Center
Sun 06:02:00 PM 39.5097 -88.9775 North 471 542 36,600 -800 Descending Kansas City Center
Sun 06:03:00 PM 39.6400 -88.9592 North 476 548 35,400 -2,308 Descending Kansas City Center
Sun 06:05:15 PM 39.9544 -88.9031 North 497 572 29,100 -2,154 Descending Chicago Center
Sun 06:06:15 PM 40.0897 -88.8778 North 497 572 28,400 -1,100 Descending Chicago Center
Sun 06:07:15 PM 40.2211 -88.8550 North 486 559 26,900 -1,500 Descending Chicago Center
Sun 06:08:15 PM 40.3481 -88.8322 North 474 545 25,400 -1,350 Descending Chicago Center
Sun 06:09:15 PM 40.4503 -88.8181 North 460 529 24,200 -1,900 Descending Chicago Center
Sun 06:10:15 PM 40.5856 -88.7950 North 455 524 21,600 -2,850 Descending Chicago Center
Sun 06:11:15 PM 40.7147 -88.7747 North 443 510 18,500 -2,500 Descending Chicago Center
Sun 06:12:15 PM 40.8231 -88.7572 North 418 481 16,600 -1,500 Descending Chicago Center
Sun 06:13:15 PM 40.9292 -88.7369 North 395 455 15,500 -1,250 Descending Chicago Center
Sun 06:14:15 PM 41.0292 -88.7197 North 374 430 14,100 -1,400 Descending Chicago Center
Sun 06:15:15 PM 41.1272 -88.7050 North 364 419 12,700 -1,400 Descending Chicago Center
Sun 06:16:15 PM 41.2250 -88.6872 North 359 413 11,300 -1,300 Descending Chicago Center
Sun 06:17:15 PM 41.3144 -88.6697 North 341 392 10,100 -1,100 Descending Chicago Center
Sun 06:18:15 PM 41.3833 -88.6608 North 321 369 9,100 -1,050 Descending Chicago Center
Sun 06:19:15 PM 41.4750 -88.6406 North 306 352 8,000 -1,150 Descending Chicago Center
Sun 06:20:15 PM 41.5581 -88.6256 16° North 306 352 6,800 -1,000 Descending Chicago Center
Sun 06:21:15 PM 41.6350 -88.5969 30° Northeast 296 341 6,000 -600 Descending Chicago Center
Sun 06:22:15 PM 41.7056 -88.5433 358° North 282 325 5,600 -1,000 Descending Chicago Center
Sun 06:23:15 PM 41.7850 -88.5478 358° North 282 325 4,000 -800 Descending Chicago Center
Sun 06:24:15 PM 41.8661 -88.5525 356° North 287 330 4,000  Level Chicago Center
Sun 06:25:15 PM 41.9475 -88.5597 27° Northeast 293 337 4,000 -328 Level Chicago Center
Sun 06:27:18 PM 42.0833 -88.4667 56° Northeast 239 275 3,000 -328 Descending Chicago TRACON
Sun 06:28:18 PM 42.1167 -88.4000 45° Northeast 239 275 3,000  Level Chicago TRACON
Sun 06:29:18 PM 42.1667 -88.3333 56° Northeast 239 275 3,000 -211 Level Chicago TRACON
Sun 06:30:12 PM 42.2000 -88.2667 62° Northeast 231 266 2,600 -263 Descending Chicago TRACON
Sun 06:31:12 PM 42.2333 -88.1833 71° East 230 265 2,500 -50 Descending Chicago TRACON
Sun 06:32:12 PM 42.2500 -88.1167 56° Northeast 211 243 2,500  Level Chicago TRACON
Sun 06:33:12 PM 42.2833 -88.0500 90° East 191 220 2,500  Level Chicago TRACON
Sun 06:34:12 PM 42.2833 -88.0000 143° Southeast 179 206 2,500  Level Chicago TRACON
Sun 06:35:06 PM 42.2500 -87.9667 166° South 156 180 2,500 -100 Level Chicago TRACON
Sun 06:36:12 PM 42.2000 -87.9500 160° South 142 163 2,300 -347 Descending Chicago TRACON
Sun 06:37:07 PM 42.1667 -87.9333 160° South 118 136 1,800 -545 Descending Chicago TRACON

Login

Don't have an account? Register now (free) for customized features, flight alerts, and more!